createdAt,value
2022-11-06T00:02:50.321Z,100182.00
2022-11-06T00:12:52.969Z,100196.59
2022-11-06T00:22:54.571Z,100182.03
2022-11-06T00:32:58.071Z,100178.56
2022-11-06T00:42:59.748Z,100194.91
2022-11-06T00:53:01.423Z,100191.47
2022-11-06T01:03:03.261Z,100191.47
2022-11-06T01:13:10.845Z,100194.91
2022-11-06T01:23:12.414Z,100190.59
2022-11-06T01:33:13.983Z,100200.06
2022-11-06T01:43:18.966Z,100201.75
2022-11-06T01:53:23.671Z,100203.50
2022-11-06T02:03:25.603Z,100201.75
2022-11-06T02:13:44.925Z,100202.63
2022-11-06T02:24:08.698Z,100208.66
2022-11-06T02:34:15.564Z,100224.94
2022-11-06T02:44:26.351Z,100229.25
2022-11-06T02:54:31.219Z,100231.84
2022-11-06T03:04:48.988Z,100235.25
2022-11-06T03:15:14.065Z,100261.03
2022-11-06T03:25:39.725Z,100262.75
2022-11-06T03:35:47.403Z,100268.75
2022-11-06T03:45:52.745Z,100280.81
2022-11-06T03:56:02.061Z,100285.09
2022-11-06T04:06:13.396Z,100295.38
2022-11-06T04:16:19.446Z,100292.84
2022-11-06T04:26:38.077Z,100295.41
2022-11-06T04:36:53.547Z,100297.97
2022-11-06T04:47:00.237Z,100294.53
2022-11-06T04:57:03.980Z,100290.22
2022-11-06T05:07:06.631Z,100296.25
2022-11-06T05:17:08.250Z,100306.56
2022-11-06T05:27:10.928Z,100317.75
2022-11-06T05:37:12.504Z,100319.47
2022-11-06T05:47:14.092Z,100322.03
2022-11-06T05:57:16.043Z,100345.19
2022-11-06T06:07:17.730Z,100351.22
2022-11-06T06:17:19.874Z,100365.84
2022-11-06T06:27:21.538Z,100388.16
2022-11-06T06:37:23.163Z,100396.75
2022-11-06T06:47:24.954Z,100408.78
2022-11-06T06:57:26.517Z,100420.84
2022-11-06T07:07:28.130Z,100424.28
2022-11-06T07:17:30.882Z,100422.53
2022-11-06T07:27:32.596Z,100437.19
2022-11-06T07:37:36.029Z,100448.38
2022-11-06T07:47:37.731Z,100457.84
2022-11-06T07:57:39.557Z,100452.72
2022-11-06T08:07:41.340Z,100452.72
2022-11-06T08:17:43.712Z,100457.03
2022-11-06T08:27:47.109Z,100467.31
2022-11-06T08:37:56.196Z,100462.16
2022-11-06T08:48:07.063Z,100458.72
2022-11-06T08:58:09.981Z,100459.59
2022-11-06T09:08:13.066Z,100466.47
2022-11-06T09:18:21.164Z,100458.72
2022-11-06T09:28:22.941Z,100445.72
2022-11-06T09:38:26.009Z,100456.69
2022-11-06T09:48:35.869Z,100451.31
2022-11-06T09:58:42.192Z,100450.13
2022-11-06T10:08:44.665Z,100439.50
2022-11-06T10:19:07.583Z,100431.00
2022-11-06T10:29:46.472Z,100430.34
2022-11-06T10:39:53.060Z,100422.09
2022-11-06T10:49:59.455Z,100422.56
2022-11-06T11:00:05.739Z,100403.84
2022-11-06T11:10:28.220Z,100405.72
2022-11-06T11:20:33.255Z,100404.00
2022-11-06T11:30:37.081Z,100395.41
2022-11-06T11:40:40.974Z,100385.09
2022-11-06T11:50:43.735Z,100378.97
2022-11-06T12:00:59.502Z,100391.78
2022-11-06T12:11:08.611Z,100383.84
2022-11-06T12:21:16.435Z,100385.75
2022-11-06T12:31:28.002Z,100386.91
2022-11-06T12:41:33.981Z,100380.44
2022-11-06T12:51:55.293Z,100393.88
2022-11-06T13:02:16.123Z,100380.91
2022-11-06T13:12:40.562Z,100394.28
2022-11-06T13:22:59.070Z,100403.69
2022-11-06T13:33:09.836Z,100394.78
2022-11-06T13:43:11.536Z,100397.50
2022-11-06T13:53:32.156Z,100388.06
2022-11-06T14:03:41.749Z,100380.88
2022-11-06T14:14:12.182Z,100372.59
2022-11-06T14:24:43.809Z,100369.13
2022-11-06T14:34:49.084Z,100370.34
2022-11-06T14:44:57.405Z,100362.88
2022-11-06T14:55:05.772Z,100371.03
2022-11-06T15:05:17.022Z,100385.88
2022-11-06T15:15:20.808Z,100381.81
2022-11-06T15:25:26.561Z,100389.72
2022-11-06T15:35:34.664Z,100394.06
2022-11-06T15:45:37.680Z,100388.84
2022-11-06T15:55:51.740Z,100393.19
2022-11-06T16:06:00.718Z,100396.63
2022-11-06T16:16:03.469Z,100388.97
2022-11-06T16:26:12.047Z,100394.22
2022-11-06T16:36:14.604Z,100399.38
2022-11-06T16:46:16.761Z,100395.94
2022-11-06T16:56:24.916Z,100401.94
2022-11-06T17:06:30.606Z,100393.38
2022-11-06T17:16:49.887Z,100384.81
2022-11-06T17:26:56.756Z,100411.44
2022-11-06T17:36:58.972Z,100415.72
2022-11-06T17:47:02.388Z,100424.28
2022-11-06T17:57:07.778Z,100435.44
2022-11-06T18:07:10.980Z,100418.25
2022-11-06T18:17:13.528Z,100432.03
2022-11-06T18:27:15.589Z,100433.63
2022-11-06T18:37:17.759Z,100435.19
2022-11-06T18:47:24.788Z,100449.72
2022-11-06T18:57:27.143Z,100441.16
2022-11-06T19:07:38.599Z,100459.22
2022-11-06T19:17:40.368Z,100460.19
2022-11-06T19:27:55.883Z,100456.78
2022-11-06T19:37:59.525Z,100455.91
2022-11-06T19:48:01.736Z,100443.03
2022-11-06T19:58:04.697Z,100442.16
2022-11-06T20:08:07.361Z,100441.22
2022-11-06T20:18:21.124Z,100455.63
2022-11-06T20:28:23.979Z,100443.53
2022-11-06T20:38:28.060Z,100456.38
2022-11-06T20:48:31.374Z,100467.50
2022-11-06T20:58:51.717Z,100493.16
2022-11-06T21:08:54.490Z,100482.72
2022-11-06T21:19:00.642Z,100495.50
2022-11-06T21:29:10.960Z,100496.22
2022-11-06T21:39:26.025Z,100477.19
2022-11-06T21:49:28.001Z,100485.91
2022-11-06T21:59:30.085Z,100471.09
2022-11-06T22:09:31.742Z,100491.56
2022-11-06T22:19:34.374Z,100510.22
2022-11-06T22:29:39.360Z,100487.91
2022-11-06T22:39:41.011Z,100497.28
2022-11-06T22:49:42.756Z,100500.59
2022-11-06T22:59:44.566Z,100500.56
2022-11-06T23:09:47.297Z,100495.25
2022-11-06T23:19:56.419Z,100507.47
2022-11-06T23:30:00.971Z,100494.69
2022-11-06T23:40:03.841Z,100512.66
2022-11-06T23:50:07.105Z,100511.16
